Time;durP1;ratioP1;P1;durP2;ratioP2;P2;SDS_P1;SDS_P2;PMS_P1;PMS_P2;Temp;Humidity;BMP_temperature;BMP_pressure;BME280_temperature;BME280_humidity;BME280_pressure;Samples;Min_cycle;Max_cycle;Signal;HPM_P1;HPM_P2
2022/01/19 00:00:18;;;;;;;4.93;3.60;;;;;;;14.24;38.80;98273.84;5095111;28;20037;-32
2022/01/19 00:02:43;;;;;;;5.13;3.55;;;;;;;14.20;38.98;98278.56;5095001;28;20032;-31
2022/01/19 00:05:11;;;;;;;4.35;3.30;;;;;;;14.11;39.31;98270.84;5094579;28;20495;-32
2022/01/19 00:07:38;;;;;;;5.40;3.10;;;;;;;14.16;39.09;98275.09;5094770;28;20027;-32
2022/01/19 00:10:09;;;;;;;5.97;3.42;;;;;;;14.14;38.95;98272.78;5094414;28;20077;-31
2022/01/19 00:12:35;;;;;;;4.60;3.25;;;;;;;14.07;39.36;98269.34;5094630;28;20078;-32
2022/01/19 00:15:01;;;;;;;4.30;3.00;;;;;;;14.17;39.07;98269.25;5094756;28;20437;-32
2022/01/19 00:17:27;;;;;;;4.20;2.70;;;;;;;14.10;39.24;98261.09;5094568;28;20035;-31
2022/01/19 00:19:53;;;;;;;5.18;3.10;;;;;;;14.13;39.12;98265.00;5093193;28;20055;-31
2022/01/19 00:22:18;;;;;;;3.78;3.05;;;;;;;14.13;39.31;98268.50;5093985;28;20475;-32
2022/01/19 00:24:44;;;;;;;5.28;3.13;;;;;;;14.15;39.23;98279.78;5095465;28;20057;-31
2022/01/19 00:27:11;;;;;;;5.25;3.72;;;;;;;14.11;39.32;98273.56;5095188;28;20382;-32
2022/01/19 00:29:37;;;;;;;6.93;2.97;;;;;;;14.11;39.24;98270.06;5096222;28;20089;-32
2022/01/19 00:32:03;;;;;;;3.97;3.13;;;;;;;14.15;39.00;98270.81;5096399;28;20533;-32
2022/01/19 00:34:29;;;;;;;6.60;2.90;;;;;;;14.15;39.25;98265.38;5096281;28;20166;-32
2022/01/19 00:36:55;;;;;;;4.50;3.10;;;;;;;14.10;39.34;98274.75;5096189;28;20027;-32
2022/01/19 00:39:23;;;;;;;3.92;3.00;;;;;;;14.15;39.02;98266.13;5096731;28;20042;-32
2022/01/19 00:41:48;;;;;;;4.82;2.90;;;;;;;14.09;39.18;98256.84;5096056;28;20061;-32
2022/01/19 00:44:14;;;;;;;6.38;3.20;;;;;;;14.15;39.20;98270.81;5096154;28;20111;-33
2022/01/19 00:46:39;;;;;;;4.20;3.25;;;;;;;14.14;38.78;98252.91;5095841;28;20035;-32
2022/01/19 00:49:05;;;;;;;5.65;3.22;;;;;;;14.19;38.83;98244.28;5094615;28;20446;-31
2022/01/19 00:51:30;;;;;;;5.15;3.38;;;;;;;14.09;39.26;98250.63;5093991;28;20034;-31
2022/01/19 00:53:56;;;;;;;5.97;2.85;;;;;;;14.14;39.14;98231.06;5094655;28;20073;-32
2022/01/19 00:56:21;;;;;;;4.30;2.55;;;;;;;14.09;39.09;98221.41;5095569;28;20068;-33
2022/01/19 00:58:47;;;;;;;4.50;3.10;;;;;;;14.14;38.75;98225.63;5095901;28;20454;-32
2022/01/19 01:01:12;;;;;;;5.18;3.15;;;;;;;14.13;38.63;98233.03;5095708;28;20020;-32
2022/01/19 01:03:38;;;;;;;12.65;4.10;;;;;;;14.08;39.17;98238.16;5095787;28;20020;-32
2022/01/19 01:06:14;;;;;;;3.40;2.50;;;;;;;14.06;39.21;98252.22;5095761;28;20028;-32
2022/01/19 01:08:40;;;;;;;4.25;3.22;;;;;;;14.02;39.32;98249.50;5095375;28;20089;-31
2022/01/19 01:11:05;;;;;;;4.47;2.70;;;;;;;14.09;38.98;98267.78;5095759;28;20032;-32
2022/01/19 01:15:26;;;;;;;4.75;3.10;;;;;;;14.09;39.23;98272.47;5095435;28;20028;-31
2022/01/19 01:16:29;;;;;;;4.43;2.80;;;;;;;14.06;39.26;98265.06;5095414;28;20043;-32
2022/01/19 01:18:55;;;;;;;4.88;2.70;;;;;;;14.06;39.12;98268.56;5095517;28;20048;-31
2022/01/19 01:21:20;;;;;;;3.55;2.60;;;;;;;14.02;39.00;98267.81;5095396;28;20517;-32
2022/01/19 01:23:46;;;;;;;6.00;2.95;;;;;;;14.04;39.32;98262.75;5095466;28;20020;-32
2022/01/19 01:26:11;;;;;;;4.13;2.60;;;;;;;14.06;38.90;98259.63;5095309;28;20020;-32
2022/01/19 01:28:37;;;;;;;4.75;2.83;;;;;;;14.08;39.14;98260.00;5095280;28;20462;-32
2022/01/19 01:31:07;;;;;;;4.60;2.47;;;;;;;14.06;39.02;98257.66;5095164;28;20077;-32
2022/01/19 01:33:35;;;;;;;4.55;3.08;;;;;;;14.08;38.81;98243.63;5095329;28;20024;-31
2022/01/19 01:36:01;;;;;;;4.80;2.75;;;;;;;14.03;39.05;98240.16;5095211;28;20442;-31
2022/01/19 01:38:27;;;;;;;4.15;2.55;;;;;;;14.09;38.96;98247.91;5094980;28;20362;-32
2022/01/19 01:40:53;;;;;;;4.20;2.50;;;;;;;14.04;38.98;98246.38;5095057;28;20027;-32
2022/01/19 01:43:18;;;;;;;4.40;2.85;;;;;;;14.04;39.02;98243.66;5095024;28;20039;-31
2022/01/19 01:45:46;;;;;;;3.25;2.28;;;;;;;14.05;39.03;98244.41;5095020;28;20363;-31
2022/01/19 01:48:18;;;;;;;3.20;2.35;;;;;;;14.02;39.13;98248.72;5094799;28;20024;-31
2022/01/19 01:53:33;;;;;;;3.00;2.30;;;;;;;14.04;39.18;98232.72;5083051;28;20058;-32
2022/01/19 01:56:00;;;;;;;5.40;2.88;;;;;;;14.01;39.21;98233.53;5094340;28;20147;-31
2022/01/19 01:58:29;;;;;;;5.22;2.92;;;;;;;14.08;38.88;98224.53;5094662;28;20027;-32
2022/01/19 02:00:55;;;;;;;4.75;2.72;;;;;;;14.02;38.99;98224.94;5094690;28;20386;-32
2022/01/19 02:03:21;;;;;;;4.85;2.53;;;;;;;14.06;38.93;98224.16;5093561;28;20024;-31
2022/01/19 02:08:39;;;;;;;3.70;2.60;;;;;;;14.01;39.27;98220.69;5094435;28;20182;-32
2022/01/19 02:16:33;;;;;;;4.72;2.65;;;;;;;13.97;38.94;98206.28;5094565;28;20062;-32
2022/01/19 02:22:08;;;;;;;3.40;2.20;;;;;;;13.99;39.11;98211.34;5094169;28;20034;-32
2022/01/19 02:24:42;;;;;;;4.88;2.42;;;;;;;13.95;39.05;98199.72;5091576;28;20422;-32
2022/01/19 02:42:40;;;;;;;4.70;2.30;;;;;;;13.96;39.00;98176.72;5094119;28;20039;-31
2022/01/19 02:49:58;;;;;;;4.30;2.67;;;;;;;13.91;39.01;98167.00;5093983;28;20016;-32
2022/01/19 02:52:25;;;;;;;4.18;2.70;;;;;;;13.90;38.78;98167.41;5093796;28;20497;-32
2022/01/19 02:54:52;;;;;;;4.35;2.75;;;;;;;13.92;38.75;98176.75;5093204;28;20027;-32
2022/01/19 02:57:24;;;;;;;5.93;2.67;;;;;;;13.90;39.01;98170.13;5093607;28;20103;-32
2022/01/19 03:10:37;;;;;;;4.15;2.50;;;;;;;13.90;38.67;98178.31;5093691;28;20061;-31
2022/01/19 03:13:03;;;;;;;3.70;2.53;;;;;;;13.79;38.94;98178.44;5093188;28;20036;-31
2022/01/19 03:15:29;;;;;;;4.88;2.58;;;;;;;13.86;38.67;98183.03;5092167;28;20016;-32
2022/01/19 03:17:58;;;;;;;4.47;2.60;;;;;;;13.89;38.73;98182.22;5093180;28;20035;-31
2022/01/19 03:20:25;;;;;;;4.30;3.03;;;;;;;13.85;38.89;98176.81;5093606;28;20030;-32
2022/01/19 03:25:18;;;;;;;3.75;2.70;;;;;;;13.88;38.56;98176.00;5093052;28;20024;-32
2022/01/19 03:27:47;;;;;;;5.68;2.50;;;;;;;13.88;38.75;98170.53;5093412;28;20024;-32
2022/01/19 03:30:19;;;;;;;5.00;3.17;;;;;;;13.79;38.90;98172.97;5092955;28;20024;-31
2022/01/19 03:32:45;;;;;;;4.90;2.70;;;;;;;13.82;38.71;98174.91;5093277;28;20053;-31
2022/01/19 03:35:12;;;;;;;5.30;3.40;;;;;;;13.83;38.88;98171.00;5092955;28;20024;-32
2022/01/19 03:37:38;;;;;;;6.82;3.03;;;;;;;13.83;38.58;98172.94;5093151;28;20122;-33
2022/01/19 03:40:06;;;;;;;3.92;2.60;;;;;;;13.85;38.79;98173.28;5093183;28;20030;-32
2022/01/19 03:42:31;;;;;;;4.78;2.65;;;;;;;13.81;38.45;98173.34;5092969;28;20451;-31
2022/01/19 03:44:58;;;;;;;4.95;2.70;;;;;;;13.88;38.39;98175.22;5092934;28;20020;-32
2022/01/19 03:47:26;;;;;;;4.18;2.47;;;;;;;13.83;38.86;98168.28;5092909;28;20169;-32
2022/01/19 03:49:52;;;;;;;3.05;2.30;;;;;;;13.84;38.72;98169.06;5092884;28;20031;-33
2022/01/19 03:52:18;;;;;;;3.83;2.53;;;;;;;13.85;38.49;98165.88;5093494;28;20105;-32
2022/01/19 03:54:44;;;;;;;4.22;3.05;;;;;;;13.88;38.66;98165.09;5092981;28;20020;-33
2022/01/19 03:57:10;;;;;;;3.72;2.60;;;;;;;13.82;38.34;98176.84;5093362;28;20427;-32
2022/01/19 03:59:37;;;;;;;3.47;2.50;;;;;;;13.83;38.60;98171.00;5091455;28;20032;-32
2022/01/19 04:02:03;;;;;;;3.70;2.53;;;;;;;13.82;38.27;98166.72;5092858;28;20048;-31
2022/01/19 04:07:14;;;;;;;4.00;2.58;;;;;;;13.71;38.45;98168.78;5092876;28;20043;-31
2022/01/19 04:09:43;;;;;;;3.28;2.22;;;;;;;13.78;38.37;98165.19;5092921;28;20023;-32
2022/01/19 04:12:13;;;;;;;4.15;3.08;;;;;;;13.76;38.45;98165.59;5092766;28;20098;-31
2022/01/19 04:14:39;;;;;;;3.75;2.47;;;;;;;13.82;38.44;98161.28;5092817;28;20014;-32
2022/01/19 04:17:07;;;;;;;3.25;2.67;;;;;;;13.77;38.54;98167.16;5092741;28;20032;-31
2022/01/19 04:22:07;;;;;;;3.72;2.78;;;;;;;13.79;38.56;98167.53;5092802;28;20073;-32
2022/01/19 04:24:33;;;;;;;5.13;2.80;;;;;;;13.76;38.60;98173.78;5091177;28;20033;-32
2022/01/19 04:29:56;;;;;;;4.22;3.10;;;;;;;13.81;38.25;98161.69;5096386;28;20028;-31
2022/01/19 04:32:37;;;;;;;3.60;2.60;;;;;;;13.76;38.45;98173.00;5095067;28;20490;-31
2022/01/19 04:35:06;;;;;;;5.55;2.90;;;;;;;13.72;38.82;98167.63;5095063;28;20020;-32
2022/01/19 05:04:37;;;;;;;5.13;3.05;;;;;;;13.74;38.32;98170.69;5095945;28;20036;-31
2022/01/19 05:07:17;;;;;;;5.05;3.05;;;;;;;13.71;38.09;98168.00;5095690;28;20032;-32
2022/01/19 05:15:27;;;;;;;3.63;2.67;;;;;;;13.75;37.96;98163.28;5073363;28;20174;-31
2022/01/19 05:17:52;;;;;;;5.80;3.47;;;;;;;13.72;38.61;98167.63;5073144;28;20036;-32
2022/01/19 05:20:18;;;;;;;4.93;3.00;;;;;;;13.75;38.10;98166.00;5072992;28;20380;-32
2022/01/19 05:22:43;;;;;;;4.32;3.10;;;;;;;13.72;38.09;98169.56;5073116;28;20378;-33
2022/01/19 05:25:09;;;;;;;4.65;3.10;;;;;;;13.68;38.14;98166.88;5072901;28;20032;-32
2022/01/19 05:27:34;;;;;;;6.10;3.00;;;;;;;13.65;38.09;98173.13;5072841;28;20582;-32
2022/01/19 05:30:00;;;;;;;4.25;2.78;;;;;;;13.70;38.06;98169.19;5072996;28;20036;-32
2022/01/19 05:32:25;;;;;;;6.40;3.05;;;;;;;13.69;38.34;98167.63;5073147;28;20024;-32
2022/01/19 05:34:51;;;;;;;5.53;2.95;;;;;;;13.69;38.52;98173.88;5072741;28;20119;-31
2022/01/19 05:37:16;;;;;;;5.20;3.53;;;;;;;13.67;38.37;98173.50;5073084;28;20024;-32
2022/01/19 05:39:42;;;;;;;6.63;3.95;;;;;;;13.67;38.16;98170.75;5056039;28;20106;-31
2022/01/19 05:42:15;;;;;;;5.75;3.72;;;;;;;13.71;37.98;98176.19;5072708;28;20036;-32
2022/01/19 05:44:44;;;;;;;6.05;3.85;;;;;;;13.69;37.96;98173.88;5072600;28;20032;-31
2022/01/19 05:47:11;;;;;;;5.43;3.80;;;;;;;13.63;38.36;98178.97;5088444;28;20393;-32
2022/01/19 05:49:38;;;;;;;6.20;3.33;;;;;;;13.55;38.16;98179.44;5094782;28;20111;-32
2022/01/19 05:52:07;;;;;;;7.22;4.00;;;;;;;13.64;38.21;98168.84;5094861;28;20062;-31
2022/01/19 05:54:33;;;;;;;6.25;3.72;;;;;;;13.65;38.00;98168.44;5094644;28;20107;-31
2022/01/19 05:57:00;;;;;;;5.53;3.75;;;;;;;13.64;38.44;98174.28;5094600;28;20126;-32
2022/01/19 05:59:26;;;;;;;6.80;4.00;;;;;;;13.62;38.10;98179.38;5095025;28;20115;-32
2022/01/19 06:01:55;;;;;;;6.47;4.40;;;;;;;13.58;38.51;98165.00;5094747;28;20051;-31
2022/01/19 06:04:22;;;;;;;7.25;4.80;;;;;;;13.45;38.53;98174.88;5094718;28;20467;-32
2022/01/19 06:06:49;;;;;;;6.68;4.50;;;;;;;13.50;38.33;98175.19;5093066;28;20099;-32
2022/01/19 06:09:33;;;;;;;7.03;4.68;;;;;;;13.49;38.01;98170.91;5094409;28;20440;-32
2022/01/19 06:12:07;;;;;;;7.10;4.20;;;;;;;13.58;38.53;98168.53;5093095;28;20035;-32
2022/01/19 06:14:34;;;;;;;7.45;4.50;;;;;;;13.56;38.01;98168.16;5094386;28;20020;-32
2022/01/19 06:17:00;;;;;;;5.68;4.10;;;;;;;13.59;38.54;98175.53;5094244;28;20110;-32
2022/01/19 06:19:26;;;;;;;6.90;4.07;;;;;;;13.61;38.39;98169.63;5093040;28;20386;-32
2022/01/19 06:21:52;;;;;;;5.45;3.67;;;;;;;13.55;38.15;98174.78;5094016;28;20024;-32
2022/01/19 06:24:18;;;;;;;6.15;3.70;;;;;;;13.51;38.31;98174.03;5094431;28;20062;-32
2022/01/19 06:26:44;;;;;;;7.47;4.28;;;;;;;13.51;38.46;98175.97;5094068;28;20060;-32
2022/01/19 06:29:09;;;;;;;7.13;3.80;;;;;;;13.53;38.42;98179.84;5094478;28;20044;-32
2022/01/19 06:31:35;;;;;;;6.63;4.55;;;;;;;13.54;38.18;98175.94;5093891;28;20047;-32
2022/01/19 06:34:01;;;;;;;6.63;4.28;;;;;;;13.59;38.13;98177.47;5094133;28;20024;-32
2022/01/19 06:36:26;;;;;;;7.13;3.80;;;;;;;13.50;38.29;98179.88;5093809;28;20023;-32
2022/01/19 06:38:55;;;;;;;6.45;3.35;;;;;;;13.46;38.52;98171.75;5093609;28;20424;-32
2022/01/19 06:41:21;;;;;;;6.07;4.20;;;;;;;13.49;38.18;98170.91;5094244;28;20055;-32
2022/01/19 06:43:46;;;;;;;8.02;4.13;;;;;;;13.54;38.25;98177.91;5093827;28;20943;-32
2022/01/19 06:46:13;;;;;;;8.05;3.38;;;;;;;13.51;38.41;98184.16;5093720;28;20027;-32
2022/01/19 06:48:39;;;;;;;7.68;3.75;;;;;;;13.56;38.24;98186.44;5093477;28;20043;-32
2022/01/19 06:51:04;;;;;;;5.10;3.50;;;;;;;13.46;38.27;98179.16;5093778;28;20370;-32
2022/01/19 06:53:30;;;;;;;6.35;3.83;;;;;;;13.57;38.31;98193.44;5091557;28;20024;-32
2022/01/19 06:55:57;;;;;;;6.38;3.85;;;;;;;13.50;37.99;98182.59;5089273;28;20414;-32
2022/01/19 06:58:28;;;;;;;10.88;4.18;;;;;;;13.49;38.46;98189.22;5091412;28;20490;-32
2022/01/19 07:00:54;;;;;;;6.55;4.53;;;;;;;13.39;38.46;98192.81;5091371;28;20093;-32
2022/01/19 07:03:20;;;;;;;6.97;4.35;;;;;;;13.48;38.61;98190.41;5091729;28;20027;-31
2022/01/19 07:05:47;;;;;;;7.80;4.30;;;;;;;13.50;38.45;98182.59;5091025;28;20589;-32
2022/01/19 07:08:12;;;;;;;7.85;4.40;;;;;;;13.44;38.26;98181.50;5091588;28;20106;-32
2022/01/19 07:10:38;;;;;;;8.18;4.63;;;;;;;13.52;38.26;98180.25;5089987;28;20032;-32
2022/01/19 07:13:05;;;;;;;7.13;4.65;;;;;;;13.47;38.18;98186.16;5091471;28;20476;-32
2022/01/19 07:15:31;;;;;;;6.53;4.07;;;;;;;13.42;38.50;98186.56;5091479;28;20027;-32
2022/01/19 07:17:58;;;;;;;7.15;4.57;;;;;;;13.47;38.35;98181.47;5091017;28;20032;-32
2022/01/19 07:20:24;;;;;;;5.72;4.30;;;;;;;13.41;38.47;98185.00;5091398;28;20466;-32
2022/01/19 07:22:50;;;;;;;7.43;4.93;;;;;;;13.45;38.55;98191.22;5091262;28;20039;-33
2022/01/19 07:25:16;;;;;;;7.88;5.50;;;;;;;13.49;38.37;98184.53;5090922;28;20481;-32
2022/01/19 07:27:42;;;;;;;9.60;6.20;;;;;;;13.56;38.02;98186.44;5091077;28;20462;-32
2022/01/19 07:30:13;;;;;;;10.77;7.47;;;;;;;13.42;38.21;98187.34;5090393;28;20024;-32
2022/01/19 07:32:39;;;;;;;8.23;6.13;;;;;;;13.38;38.42;98185.81;5091388;28;20490;-33
2022/01/19 07:35:07;;;;;;;10.55;6.22;;;;;;;13.45;38.50;98188.50;5091328;28;20024;-32
2022/01/19 07:37:32;;;;;;;9.90;6.15;;;;;;;13.39;38.73;98187.38;5091261;28;20037;-32
2022/01/19 07:39:59;;;;;;;9.35;6.10;;;;;;;13.30;38.72;98190.56;5090900;28;20020;-32
2022/01/19 07:42:25;;;;;;;8.30;6.07;;;;;;;13.36;38.88;98193.59;5090684;28;20028;-32
2022/01/19 07:44:52;;;;;;;9.10;5.88;;;;;;;13.39;38.81;98181.91;5090848;28;20035;-32
2022/01/19 07:47:17;;;;;;;9.05;5.80;;;;;;;13.45;38.46;98191.22;5090996;28;20036;-31
2022/01/19 07:49:43;;;;;;;7.20;5.43;;;;;;;13.52;38.59;98193.88;5091060;28;20423;-32
2022/01/19 07:52:09;;;;;;;9.50;5.60;;;;;;;13.47;38.62;98188.88;5090962;28;20024;-32
2022/01/19 07:54:35;;;;;;;7.72;4.93;;;;;;;13.52;38.62;98191.16;5090660;28;20027;-32
2022/01/19 07:57:00;;;;;;;7.50;5.20;;;;;;;13.51;38.78;98195.03;5088299;28;20059;-32
2022/01/19 07:59:26;;;;;;;8.02;4.95;;;;;;;13.42;38.44;98202.91;5091835;28;20039;-32
2022/01/19 08:01:53;;;;;;;6.30;4.28;;;;;;;13.48;38.88;98201.28;5096081;28;20501;-32
2022/01/19 08:04:19;;;;;;;6.97;5.18;;;;;;;13.56;38.55;98200.84;5096785;28;20081;-33
2022/01/19 08:06:44;;;;;;;7.05;4.90;;;;;;;13.60;38.33;98187.16;5097164;28;20024;-32
2022/01/19 08:09:10;;;;;;;7.97;4.93;;;;;;;13.51;38.69;98195.03;5097167;28;20031;-33
2022/01/19 08:11:36;;;;;;;7.07;5.18;;;;;;;13.45;38.65;98191.22;5096839;28;20028;-31
2022/01/19 08:14:01;;;;;;;7.72;5.45;;;;;;;13.50;38.68;98199.72;5096861;28;20027;-33
2022/01/19 08:16:27;;;;;;;9.15;5.88;;;;;;;13.58;38.73;98195.78;5096721;28;20024;-32
2022/01/19 08:18:52;;;;;;;9.75;5.63;;;;;;;13.55;38.74;98206.72;5096719;28;20028;-33
2022/01/19 08:21:21;;;;;;;8.10;5.95;;;;;;;13.52;38.68;98202.06;5096898;28;20520;-32
2022/01/19 08:23:46;;;;;;;9.63;5.68;;;;;;;13.49;38.93;98200.91;5096569;28;20539;-32
2022/01/19 08:26:13;;;;;;;6.82;4.60;;;;;;;13.61;38.75;98210.53;5096630;28;20052;-32
2022/01/19 08:28:39;;;;;;;9.48;5.38;;;;;;;13.42;39.06;98206.41;5096436;28;20098;-32
2022/01/19 08:31:05;;;;;;;7.90;5.07;;;;;;;13.52;39.14;98204.78;5096597;28;20495;-31
2022/01/19 08:33:30;;;;;;;7.85;4.80;;;;;;;13.47;38.66;98200.56;5096698;28;20435;-33
2022/01/19 08:35:56;;;;;;;8.77;5.45;;;;;;;13.46;39.13;98204.44;5095127;28;20394;-32
2022/01/19 08:38:22;;;;;;;7.93;5.13;;;;;;;13.41;39.18;98206.81;5091930;28;20062;-31
2022/01/19 08:40:49;;;;;;;12.38;5.30;;;;;;;13.58;39.06;98208.63;5089000;28;20056;-33
2022/01/19 08:43:23;;;;;;;9.73;5.20;;;;;;;12.34;41.03;98207.44;5093318;28;20035;-29
2022/01/19 08:45:49;;;;;;;8.05;5.60;;;;;;;12.76;40.36;98205.66;5076438;28;20108;-30
2022/01/19 08:48:15;;;;;;;9.25;5.22;;;;;;;13.04;39.29;98210.16;5084878;28;20124;-31
2022/01/19 08:50:40;;;;;;;14.43;5.43;;;;;;;13.26;39.20;98215.09;5077968;28;20485;-31
2022/01/19 08:53:05;;;;;;;7.85;5.30;;;;;;;13.35;38.75;98213.88;5094057;28;20058;-31
2022/01/19 08:55:31;;;;;;;9.80;5.10;;;;;;;13.35;38.91;98213.88;5095730;28;20101;-32
2022/01/19 08:57:57;;;;;;;7.93;4.70;;;;;;;13.37;38.92;98217.75;5096052;28;20038;-31
2022/01/19 09:00:23;;;;;;;9.30;5.28;;;;;;;13.40;39.02;98225.13;5095906;28;20160;-30
2022/01/19 09:02:49;;;;;;;7.47;4.43;;;;;;;13.47;38.89;98221.59;5076994;28;20112;-31
2022/01/19 09:05:15;;;;;;;8.02;4.78;;;;;;;13.46;39.05;98225.47;5075316;28;20051;-31
2022/01/19 09:07:41;;;;;;;6.45;4.95;;;;;;;13.47;39.22;98222.34;5079297;28;20027;-31
2022/01/19 09:10:09;;;;;;;6.03;4.68;;;;;;;13.50;39.32;98229.72;5075668;28;20023;-31
2022/01/19 09:12:36;;;;;;;8.43;4.68;;;;;;;13.29;39.52;98233.38;5074929;28;20082;-30
2022/01/19 09:15:06;;;;;;;9.02;4.80;;;;;;;13.44;39.33;98227.81;5075314;28;20021;-31
2022/01/19 09:17:31;;;;;;;7.38;4.68;;;;;;;13.29;39.36;98227.94;5075233;28;20047;-30
2022/01/19 09:19:57;;;;;;;8.05;4.85;;;;;;;13.30;39.82;98232.19;5075299;28;20368;-30
2022/01/19 09:22:22;;;;;;;6.10;4.25;;;;;;;13.45;39.38;98232.09;5075631;28;20060;-31
2022/01/19 09:24:48;;;;;;;5.97;4.47;;;;;;;13.40;39.66;98233.28;5075080;28;20044;-32
2022/01/19 09:27:15;;;;;;;6.75;4.60;;;;;;;13.50;39.21;98231.66;5075207;28;20025;-30
2022/01/19 09:29:43;;;;;;;5.93;4.15;;;;;;;13.45;39.67;98232.09;5075161;28;20039;-31
2022/01/19 09:32:13;;;;;;;7.55;4.60;;;;;;;13.41;39.64;98234.06;5075156;28;20028;-31
2022/01/19 09:34:48;;;;;;;6.63;4.55;;;;;;;13.42;39.46;98230.94;5074989;28;20528;-30
2022/01/19 09:37:16;;;;;;;6.47;4.22;;;;;;;13.43;39.55;98227.06;5075152;28;20032;-31
2022/01/19 09:39:42;;;;;;;6.60;3.92;;;;;;;13.43;39.52;98232.50;5074810;28;20028;-31
2022/01/19 09:42:08;;;;;;;5.38;4.25;;;;;;;13.41;40.01;98234.06;5074633;28;20522;-31
2022/01/19 09:44:34;;;;;;;6.22;4.35;;;;;;;13.42;39.71;98225.50;5074346;28;20031;-30
2022/01/19 09:47:00;;;;;;;5.55;4.30;;;;;;;13.42;39.72;98232.91;5074704;28;20020;-31
2022/01/19 09:49:26;;;;;;;8.35;4.40;;;;;;;13.44;39.91;98216.91;5075053;28;20028;-30
2022/01/19 09:51:54;;;;;;;7.80;4.75;;;;;;;13.47;39.84;98224.31;5074653;28;20025;-31
2022/01/19 09:54:22;;;;;;;5.95;3.92;;;;;;;13.50;39.91;98220.75;5074386;28;20021;-30
2022/01/19 09:56:48;;;;;;;6.05;4.50;;;;;;;13.40;40.12;98222.41;5074244;28;20048;-31
2022/01/19 09:59:15;;;;;;;6.57;4.38;;;;;;;13.45;40.43;98215.75;5089595;28;20035;-31
2022/01/19 10:01:51;;;;;;;5.82;4.18;;;;;;;13.48;40.17;98212.19;5094655;28;20069;-31
2022/01/19 10:04:18;;;;;;;6.28;3.90;;;;;;;13.45;40.01;98223.94;5094545;28;20378;-30
2022/01/19 10:06:43;;;;;;;6.68;4.45;;;;;;;13.48;40.41;98207.53;5094445;28;20024;-32
2022/01/19 10:09:09;;;;;;;7.10;4.50;;;;;;;13.45;40.56;98210.31;5094810;28;20081;-31
2022/01/19 10:17:06;;;;;;;8.40;5.00;;;;;;;13.44;40.63;98201.34;5094764;28;20042;-31
2022/01/19 10:19:42;;;;;;;6.25;4.15;;;;;;;13.42;40.28;98195.53;5094414;28;20066;-32
2022/01/19 10:22:25;;;;;;;7.90;4.57;;;;;;;13.44;40.38;98197.84;5094009;28;20031;-32
2022/01/19 10:24:52;;;;;;;5.78;4.15;;;;;;;13.45;40.29;98191.22;5093374;28;20067;-30
2022/01/19 10:27:31;;;;;;;5.38;4.30;;;;;;;13.45;40.58;98185.78;5094198;28;20111;-31
2022/01/19 10:30:03;;;;;;;7.65;4.53;;;;;;;13.46;40.52;98179.16;5094175;28;20392;-30
2022/01/19 10:32:35;;;;;;;6.28;4.47;;;;;;;13.54;40.31;98183.34;5092767;28;20043;-31
2022/01/19 10:35:20;;;;;;;6.72;4.60;;;;;;;13.53;40.47;98182.56;5092977;28;20032;-31
2022/01/19 10:37:47;;;;;;;4.97;4.03;;;;;;;13.52;40.99;98174.78;5093915;28;20470;-31
2022/01/19 10:40:20;;;;;;;6.05;4.30;;;;;;;13.48;40.77;98174.81;5094144;28;20031;-31
2022/01/19 10:42:47;;;;;;;5.50;4.50;;;;;;;13.54;40.68;98169.72;5094293;28;20024;-31
2022/01/19 10:45:15;;;;;;;7.63;4.80;;;;;;;13.55;41.12;98158.41;5093985;28;20030;-32
2022/01/19 10:47:40;;;;;;;6.20;4.47;;;;;;;13.49;40.96;98159.25;5093796;28;20024;-30
2022/01/19 10:50:07;;;;;;;5.93;4.00;;;;;;;13.49;41.00;98148.34;5093650;28;20355;-31
2022/01/19 10:52:43;;;;;;;6.60;4.53;;;;;;;13.51;41.44;98149.50;5093732;28;20470;-31
2022/01/19 10:55:38;;;;;;;7.38;4.55;;;;;;;13.52;41.44;98139.34;5093510;28;20047;-30
2022/01/19 10:58:11;;;;;;;7.10;4.50;;;;;;;13.57;41.47;98133.47;5089708;28;20032;-30
2022/01/19 11:00:36;;;;;;;9.82;5.60;;;;;;;13.40;42.21;98128.97;5092615;28;20031;-31
2022/01/19 11:03:17;;;;;;;6.57;4.28;;;;;;;13.51;42.25;98121.47;5093389;28;20027;-31
2022/01/19 11:05:49;;;;;;;8.88;4.70;;;;;;;13.37;42.85;98124.31;5093387;28;20561;-31
2022/01/19 11:08:17;;;;;;;8.97;5.17;;;;;;;13.29;42.98;98118.94;5093497;28;20524;-30
2022/01/19 11:10:48;;;;;;;8.85;5.65;;;;;;;13.24;45.01;98127.53;5093562;28;20389;-30
2022/01/19 11:13:17;;;;;;;7.00;4.97;;;;;;;12.97;45.37;98120.34;5093449;28;20024;-30
2022/01/19 11:15:43;;;;;;;7.43;5.13;;;;;;;13.21;45.52;98112.00;5093277;28;20024;-31
2022/01/19 11:18:09;;;;;;;10.07;6.85;;;;;;;13.30;46.96;98114.25;5091912;28;20420;-31
2022/01/19 11:20:46;;;;;;;8.35;5.35;;;;;;;12.84;46.74;98109.16;5093725;28;20023;-31
2022/01/19 11:23:20;;;;;;;6.63;5.30;;;;;;;13.23;44.89;98098.75;5091938;28;20118;-31
2022/01/19 11:25:56;;;;;;;8.73;4.93;;;;;;;12.98;46.20;98097.41;5093341;28;20034;-31
2022/01/19 11:28:34;;;;;;;7.65;5.00;;;;;;;13.43;44.63;98087.28;5093266;28;20024;-30
2022/01/19 11:31:03;;;;;;;8.48;6.07;;;;;;;13.12;47.16;98095.31;5091709;28;20479;-31
2022/01/19 11:33:30;;;;;;;9.60;5.50;;;;;;;13.28;45.49;98089.38;5092592;28;20600;-30
2022/01/19 11:36:01;;;;;;;8.50;5.40;;;;;;;13.14;46.81;98087.53;5093049;28;20032;-31
2022/01/19 11:38:37;;;;;;;8.95;4.75;;;;;;;13.32;46.45;98079.22;5090797;28;20028;-32
2022/01/19 11:41:38;;;;;;;7.00;5.20;;;;;;;13.46;45.28;98067.41;5090780;28;20023;-31
2022/01/19 11:44:05;;;;;;;8.13;5.10;;;;;;;13.54;45.61;98074.31;5090916;28;20746;-31
2022/01/19 11:46:33;;;;;;;7.72;4.78;;;;;;;13.40;45.10;98074.47;5090686;28;20024;-31
2022/01/19 11:49:04;;;;;;;7.18;4.57;;;;;;;13.55;44.16;98071.19;5091227;28;20028;-31
2022/01/19 11:51:41;;;;;;;7.50;4.93;;;;;;;13.19;45.73;98064.56;5090958;28;20046;-31
2022/01/19 12:31:13;;;;;;;9.48;5.50;;;;;;;13.53;46.27;98002.66;5066655;28;20051;-32
2022/01/19 12:34:04;;;;;;;8.00;5.70;;;;;;;13.33;46.46;97996.28;5047570;28;20040;-31
2022/01/19 12:46:38;;;;;;;8.85;5.60;;;;;;;13.55;45.91;97977.72;5050313;28;20043;-31
2022/01/19 13:02:31;;;;;;;12.73;7.53;;;;;;;13.56;45.59;97968.38;5052173;28;20090;-30
2022/01/19 13:18:29;;;;;;;12.10;7.18;;;;;;;13.49;46.55;97957.56;5053042;28;20044;-31
2022/01/19 13:31:22;;;;;;;12.30;7.03;;;;;;;13.39;46.55;97947.56;5052757;28;20139;-34
2022/01/19 13:47:26;;;;;;;13.98;7.97;;;;;;;13.55;45.76;97950.47;5052125;28;20043;-31
2022/01/19 14:03:21;;;;;;;13.40;8.90;;;;;;;13.54;45.95;97938.03;5051215;28;20059;-31
2022/01/19 14:16:24;;;;;;;14.27;8.55;;;;;;;13.63;45.51;97924.66;5051382;28;20506;-30
2022/01/19 14:32:16;;;;;;;16.73;10.00;;;;;;;13.63;45.95;97919.22;5068647;28;20070;-31
2022/01/19 14:34:42;;;;;;;15.13;9.20;;;;;;;13.60;45.71;97909.88;5089131;28;20020;-31
2022/01/19 14:47:39;;;;;;;15.18;9.05;;;;;;;13.64;45.63;97899.72;5091216;28;20425;-31
2022/01/19 15:01:27;;;;;;;15.25;9.15;;;;;;;13.65;45.92;97892.31;5091203;28;20072;-31
2022/01/19 15:18:11;;;;;;;18.90;9.80;;;;;;;13.51;47.05;97873.44;5090963;28;20085;-30
2022/01/19 15:31:18;;;;;;;15.15;9.32;;;;;;;13.58;46.83;97865.16;5090340;28;20043;-30
2022/01/19 15:47:12;;;;;;;12.80;7.90;;;;;;;13.56;47.17;97845.72;5090184;28;20030;-33
2022/01/19 16:16:32;;;;;;;26.00;15.07;;;;;;;13.59;46.80;97836.72;5090420;28;20404;-31
2022/01/19 16:18:58;;;;;;;24.40;13.30;;;;;;;13.61;46.57;97839.78;5090831;28;20103;-31
2022/01/19 16:31:30;;;;;;;27.65;14.98;;;;;;;13.60;46.76;97838.25;5092130;28;20047;-31
2022/01/19 16:47:27;;;;;;;24.65;13.75;;;;;;;12.54;52.17;97832.94;5093974;28;20077;-29
2022/01/19 17:16:59;;;;;;;21.58;13.27;;;;;;;13.57;47.48;97841.81;5093396;28;20051;-29
2022/01/19 18:16:27;;;;;;;14.00;8.27;;;;;;;13.77;47.29;97848.13;5049339;28;20570;-28
2022/01/19 18:32:20;;;;;;;12.23;8.60;;;;;;;13.75;48.01;97827.91;5047968;28;20822;-29
2022/01/19 19:01:45;;;;;;;13.55;9.65;;;;;;;13.75;48.04;97803.38;5091008;28;20105;-28
2022/01/19 19:17:38;;;;;;;13.65;9.40;;;;;;;13.74;47.92;97786.22;5087079;28;20043;-28
2022/01/19 19:46:59;;;;;;;12.43;7.55;;;;;;;13.72;48.15;97777.72;5097214;28;20500;-29
2022/01/19 20:16:35;;;;;;;14.77;7.75;;;;;;;13.74;48.35;97783.50;5099532;28;20103;-28
2022/01/19 20:32:27;;;;;;;18.08;8.35;;;;;;;13.73;48.25;97771.06;5104678;28;20193;-29
2022/01/19 21:01:48;;;;;;;13.40;7.13;;;;;;;13.65;48.57;97758.75;5056330;28;20501;-28
2022/01/19 21:17:43;;;;;;;10.65;6.68;;;;;;;13.73;48.27;97741.06;5062592;28;20078;-28
2022/01/19 21:47:05;;;;;;;10.82;6.22;;;;;;;13.70;48.32;97722.84;4998061;28;21085;-29